Time;durP1;ratioP1;P1;durP2;ratioP2;P2;SDS_P1;SDS_P2;PMS_P1;PMS_P2;Temp;Humidity;BMP_temperature;BMP_pressure;BME280_temperature;BME280_humidity;BME280_pressure;Samples;Min_cycle;Max_cycle;Signal;HPM_P1;HPM_P2
2022/09/01 00:00:29;;;;;;;5.83;5.33;;;;;;;17.66;73.22;94281.25;2617189;47;20167;-78
2022/09/01 00:02:58;;;;;;;6.20;5.17;;;;;;;17.84;72.42;94289.09;2617688;47;20178;-77
2022/09/01 00:05:27;;;;;;;9.00;5.00;;;;;;;17.99;72.22;94295.53;2619877;47;20188;-77
2022/09/01 00:07:56;;;;;;;4.60;4.20;;;;;;;18.02;72.14;94308.44;2615240;46;20645;-77
2022/09/01 00:10:27;;;;;;;7.80;4.43;;;;;;;18.26;72.19;94311.25;2615690;47;20153;-77
2022/09/01 00:12:56;;;;;;;5.50;5.00;;;;;;;19.08;69.91;94300.19;2617033;39;20540;-80
2022/09/01 00:15:25;;;;;;;4.90;4.38;;;;;;;19.14;67.51;94303.72;2617754;47;20141;-77
2022/09/01 00:17:54;;;;;;;4.72;4.32;;;;;;;19.22;68.33;94308.72;2617757;54;20160;-78
2022/09/01 00:20:23;;;;;;;5.15;4.57;;;;;;;19.88;65.16;94292.44;2618137;47;20130;-77
2022/09/01 00:22:52;;;;;;;4.85;4.45;;;;;;;19.49;64.89;94289.88;2617862;47;20669;-77
2022/09/01 00:25:22;;;;;;;4.43;4.03;;;;;;;19.01;67.34;94290.88;2617852;54;20189;-77
2022/09/01 00:27:58;;;;;;;5.25;4.80;;;;;;;19.76;69.48;94289.69;2618150;39;20196;-77
2022/09/01 00:30:27;;;;;;;4.80;4.40;;;;;;;20.49;66.41;94298.31;2617630;54;20160;-77
2022/09/01 00:32:56;;;;;;;5.80;5.28;;;;;;;20.45;63.56;94289.75;2617772;47;20205;-79
2022/09/01 00:35:25;;;;;;;3.90;3.60;;;;;;;20.94;64.82;94286.25;2617701;54;20164;-77
2022/09/01 00:37:53;;;;;;;6.30;5.07;;;;;;;21.36;62.86;94304.44;2617711;54;20164;-81
2022/09/01 00:40:22;;;;;;;5.00;4.30;;;;;;;21.62;62.27;94312.69;2618803;54;20148;-76
2022/09/01 00:42:54;;;;;;;4.32;4.03;;;;;;;21.70;61.64;94311.84;2620244;54;20152;-77
2022/09/01 00:45:23;;;;;;;4.97;4.47;;;;;;;20.27;62.22;94310.03;2617608;48;20262;-77
2022/09/01 00:47:52;;;;;;;4.35;3.95;;;;;;;19.62;64.16;94312.78;2617875;54;20212;-77
2022/09/01 00:50:23;;;;;;;6.72;4.68;;;;;;;19.43;67.08;94309.28;2618446;39;20540;-77
2022/09/01 00:52:54;;;;;;;5.38;4.45;;;;;;;19.49;65.68;94312.16;2618019;47;20192;-76
2022/09/01 00:55:28;;;;;;;4.93;4.53;;;;;;;19.66;67.19;94315.63;2618170;47;20179;-76
2022/09/01 00:58:03;;;;;;;6.75;4.63;;;;;;;19.94;66.25;94306.06;2618111;47;20664;-76
2022/09/01 01:00:39;;;;;;;4.95;4.55;;;;;;;20.22;66.61;94315.13;2617674;47;20145;-77
2022/09/01 01:03:10;;;;;;;8.60;5.45;;;;;;;20.39;64.78;94304.19;2617866;39;20200;-76
2022/09/01 01:05:45;;;;;;;4.28;3.88;;;;;;;20.10;63.82;94305.88;2617751;49;20153;-77
2022/09/01 01:08:20;;;;;;;4.97;4.65;;;;;;;19.91;62.56;94302.47;2617679;47;20152;-77
2022/09/01 01:10:49;;;;;;;5.30;4.75;;;;;;;19.57;63.92;94303.47;2618491;31;20653;-77
2022/09/01 01:13:23;;;;;;;5.35;4.85;;;;;;;19.16;66.54;94329.53;2617679;47;20164;-77
2022/09/01 01:15:51;;;;;;;8.85;5.05;;;;;;;18.47;69.29;94317.63;2585320;47;20152;-76
2022/09/01 01:18:20;;;;;;;5.53;5.00;;;;;;;17.85;71.56;94293.41;2622312;47;20144;-77
2022/09/01 01:23:40;;;;;;;5.87;5.40;;;;;;;17.36;75.48;94322.00;2618377;39;20570;-77
2022/09/01 01:26:12;;;;;;;6.27;5.67;;;;;;;16.98;77.01;94313.34;2618255;54;20156;-77
2022/09/01 01:28:43;;;;;;;6.57;5.93;;;;;;;16.77;77.78;94318.31;2618405;47;20141;-77
2022/09/01 01:31:14;;;;;;;7.73;5.07;;;;;;;16.62;80.17;94326.13;2618368;47;20148;-76
2022/09/01 01:33:45;;;;;;;7.60;5.47;;;;;;;15.95;81.46;94300.03;2620127;47;20153;-78
2022/09/01 01:36:18;;;;;;;6.50;5.77;;;;;;;15.71;83.24;94319.84;2618874;47;20625;-76
2022/09/01 01:38:49;;;;;;;7.07;5.80;;;;;;;15.49;85.87;94323.22;2618905;47;20205;-77
2022/09/01 01:41:23;;;;;;;6.93;6.10;;;;;;;15.72;87.40;94317.69;2618386;47;20164;-76
2022/09/01 01:43:51;;;;;;;7.37;5.30;;;;;;;16.11;84.35;94299.41;2618305;47;20241;-77
2022/09/01 01:46:20;;;;;;;7.47;6.60;;;;;;;16.31;82.61;94322.34;2618527;39;20550;-77
2022/09/01 01:48:49;;;;;;;10.00;7.07;;;;;;;16.39;82.27;94320.97;2618770;39;20657;-77
2022/09/01 01:51:20;;;;;;;6.53;5.80;;;;;;;16.81;81.07;94329.75;2618217;47;20248;-77
2022/09/01 01:53:51;;;;;;;11.13;6.23;;;;;;;17.06;79.45;94333.41;2618314;47;20189;-77
2022/09/01 01:56:24;;;;;;;8.07;6.40;;;;;;;17.20;78.14;94341.31;2618310;47;20149;-77
2022/09/01 01:58:55;;;;;;;7.43;6.60;;;;;;;17.38;77.68;94330.59;2618290;47;20641;-77
2022/09/01 02:01:24;;;;;;;6.27;5.67;;;;;;;17.87;76.80;94332.78;2618278;46;20156;-77
2022/09/01 02:03:53;;;;;;;6.40;5.80;;;;;;;18.02;75.95;94337.09;2619791;47;20180;-77
2022/09/01 02:06:24;;;;;;;5.67;5.17;;;;;;;18.37;72.53;94321.25;2619682;47;20149;-76
2022/09/01 02:08:55;;;;;;;6.30;5.50;;;;;;;18.59;71.70;94346.28;2621145;47;20673;-76
2022/09/01 02:11:27;;;;;;;6.40;5.30;;;;;;;18.84;72.36;94332.59;2620991;39;20530;-77
2022/09/01 02:13:57;;;;;;;5.55;5.13;;;;;;;19.75;69.03;94343.56;2618121;49;20240;-76
2022/09/01 02:16:27;;;;;;;8.43;5.63;;;;;;;20.14;67.73;94346.09;2618209;47;20160;-78
2022/09/01 02:18:56;;;;;;;6.25;5.72;;;;;;;20.31;66.11;94318.63;2617744;47;20396;-77
2022/09/01 02:21:27;;;;;;;6.70;6.10;;;;;;;20.18;64.10;94338.16;2618114;47;20140;-76
2022/09/01 02:23:59;;;;;;;9.30;5.07;;;;;;;20.67;64.62;94343.44;2616973;47;20153;-77
2022/09/01 02:26:33;;;;;;;5.13;4.35;;;;;;;20.99;63.46;94345.22;2618821;39;20389;-76
2022/09/01 02:29:05;;;;;;;6.28;5.70;;;;;;;20.68;62.62;94347.72;2617262;54;20155;-78
2022/09/01 02:31:38;;;;;;;6.22;5.13;;;;;;;20.64;61.90;94344.88;2617927;39;20274;-77
2022/09/01 02:34:12;;;;;;;6.38;5.10;;;;;;;19.64;66.14;94347.94;2622800;47;20152;-76
2022/09/01 02:36:46;;;;;;;5.47;5.03;;;;;;;19.07;67.83;94331.03;2617332;54;20247;-76
2022/09/01 02:39:16;;;;;;;4.90;4.55;;;;;;;18.48;69.76;94324.78;2617290;47;20144;-77
2022/09/01 02:41:48;;;;;;;6.18;5.65;;;;;;;18.33;72.03;94326.25;2617499;47;20650;-76
2022/09/01 02:44:18;;;;;;;5.85;5.30;;;;;;;18.07;72.69;94318.44;2617750;47;20145;-79
2022/09/01 02:46:49;;;;;;;7.80;6.10;;;;;;;17.41;74.08;94317.00;2617629;47;20151;-77
2022/09/01 02:49:27;;;;;;;7.57;6.97;;;;;;;16.76;79.33;94328.31;2618207;46;20260;-76
2022/09/01 02:52:00;;;;;;;7.17;6.53;;;;;;;16.35;80.46;94321.66;2618280;39;20561;-77
2022/09/01 02:54:29;;;;;;;5.67;5.13;;;;;;;16.49;80.49;94315.31;2618737;39;20537;-77
2022/09/01 02:57:02;;;;;;;7.97;6.67;;;;;;;16.66;80.65;94323.28;2618651;39;20530;-78
2022/09/01 02:59:34;;;;;;;10.40;7.63;;;;;;;16.59;80.44;94309.63;2618254;54;20145;-75
2022/09/01 03:02:03;;;;;;;10.50;6.57;;;;;;;16.82;78.84;94327.59;2618204;54;20713;-76
2022/09/01 03:04:33;;;;;;;6.33;5.70;;;;;;;18.13;76.34;94327.03;2618024;54;20157;-77
2022/09/01 03:07:02;;;;;;;10.10;7.47;;;;;;;18.64;73.19;94321.91;2619508;50;20205;-77
2022/09/01 03:09:31;;;;;;;6.95;6.25;;;;;;;19.24;70.72;94325.22;2617852;54;20153;-76
2022/09/01 03:12:02;;;;;;;10.75;6.78;;;;;;;19.22;68.41;94325.22;2617865;47;20169;-77
2022/09/01 03:14:31;;;;;;;8.52;7.25;;;;;;;19.16;69.95;94323.81;2618061;54;20137;-76
2022/09/01 03:17:00;;;;;;;6.13;5.53;;;;;;;19.30;68.81;94319.41;2617858;54;20151;-78
2022/09/01 03:19:43;;;;;;;7.28;6.30;;;;;;;19.84;67.69;94309.72;2618649;31;20636;-77
2022/09/01 03:22:12;;;;;;;7.65;6.65;;;;;;;20.14;65.75;94292.19;2617813;54;20140;-77
2022/09/01 03:24:40;;;;;;;9.30;7.03;;;;;;;20.19;64.25;94319.47;2620298;54;20152;-76
2022/09/01 03:27:12;;;;;;;10.25;6.20;;;;;;;19.89;66.30;94322.59;2617901;54;20693;-77
2022/09/01 03:29:41;;;;;;;6.82;5.22;;;;;;;20.27;65.50;94303.56;2617852;47;20173;-77
2022/09/01 03:32:09;;;;;;;8.77;5.18;;;;;;;20.57;64.61;94329.16;2617634;47;20148;-76
2022/09/01 03:34:38;;;;;;;6.30;5.70;;;;;;;20.66;63.94;94318.25;2617677;47;20149;-76
2022/09/01 03:37:08;;;;;;;5.75;5.13;;;;;;;20.83;63.10;94328.13;2617971;54;20718;-77
2022/09/01 03:39:37;;;;;;;5.22;4.80;;;;;;;20.86;62.92;94315.16;2617433;54;20157;-77
2022/09/01 03:42:07;;;;;;;7.60;5.70;;;;;;;19.69;62.04;94308.41;2617164;47;20642;-77
2022/09/01 03:44:39;;;;;;;7.30;6.32;;;;;;;18.89;67.22;94339.72;2617312;47;20160;-77
2022/09/01 03:47:14;;;;;;;7.47;6.35;;;;;;;18.27;69.14;94334.91;2617631;47;20163;-76
2022/09/01 03:49:44;;;;;;;7.73;5.37;;;;;;;17.56;71.99;94329.91;2622808;39;20527;-77
2022/09/01 03:52:13;;;;;;;6.43;5.50;;;;;;;17.07;74.76;94320.53;2615708;54;20204;-77
2022/09/01 03:54:42;;;;;;;10.83;6.47;;;;;;;16.55;78.10;94327.47;2616175;54;20165;-77
2022/09/01 03:57:12;;;;;;;6.13;4.80;;;;;;;16.57;78.03;94321.75;2616361;47;20168;-78
2022/09/01 03:59:44;;;;;;;6.73;4.90;;;;;;;17.00;77.93;94327.66;2616405;54;20153;-79
2022/09/01 04:02:13;;;;;;;5.30;4.87;;;;;;;17.20;74.87;94324.13;2616520;47;20148;-78
2022/09/01 04:04:42;;;;;;;6.77;6.00;;;;;;;16.94;75.59;94336.25;2616287;47;20157;-77
2022/09/01 04:07:11;;;;;;;5.27;4.60;;;;;;;18.17;75.16;94327.03;2616225;54;20172;-78
2022/09/01 04:09:41;;;;;;;5.45;4.95;;;;;;;18.93;70.83;94325.38;2617281;54;20133;-78
2022/09/01 04:12:14;;;;;;;5.75;5.25;;;;;;;19.21;68.72;94312.31;2617494;46;20294;-78
2022/09/01 04:14:47;;;;;;;11.68;6.70;;;;;;;19.03;68.47;94345.41;2617428;47;20156;-77
2022/09/01 04:19:57;;;;;;;4.95;4.55;;;;;;;20.14;65.42;94318.06;2617016;47;20657;-77
2022/09/01 04:22:28;;;;;;;6.00;5.35;;;;;;;20.23;63.71;94322.28;2617256;47;20140;-77
2022/09/01 04:24:58;;;;;;;9.45;6.47;;;;;;;19.47;65.16;94332.22;2617207;47;20153;-78
2022/09/01 04:27:27;;;;;;;4.95;4.55;;;;;;;19.30;67.28;94325.16;2617139;47;20278;-75
2022/09/01 04:30:00;;;;;;;5.18;4.68;;;;;;;19.81;65.86;94305.44;2613182;47;20185;-80
2022/09/01 04:32:29;;;;;;;6.38;4.10;;;;;;;20.47;64.47;94332.16;2614751;54;20153;-80
2022/09/01 04:35:00;;;;;;;6.28;5.13;;;;;;;20.57;63.25;94315.50;2618464;47;20197;-79
2022/09/01 04:37:29;;;;;;;4.45;4.10;;;;;;;20.75;62.84;94322.50;2615790;47;20272;-78
2022/09/01 04:40:00;;;;;;;4.25;3.92;;;;;;;20.56;62.37;94296.09;2615591;47;20197;-78
2022/09/01 04:42:31;;;;;;;6.47;5.30;;;;;;;20.88;62.34;94336.00;2614905;47;20164;-76
2022/09/01 04:45:05;;;;;;;4.57;4.28;;;;;;;20.99;61.92;94339.47;2614758;47;20213;-76
2022/09/01 04:47:34;;;;;;;6.93;4.50;;;;;;;21.02;61.70;94328.63;2616072;47;20159;-76
2022/09/01 04:50:03;;;;;;;5.47;5.00;;;;;;;20.54;62.53;94334.22;2615251;47;20172;-75
2022/09/01 04:52:31;;;;;;;5.80;5.22;;;;;;;20.06;65.02;94334.69;2614620;47;20200;-74
2022/09/01 04:55:02;;;;;;;5.55;5.00;;;;;;;19.84;65.52;94316.16;2614431;54;20362;-76
2022/09/01 04:57:30;;;;;;;13.00;9.80;;;;;;;19.05;69.01;94331.03;2614864;47;20449;-77
2022/09/01 05:00:02;;;;;;;6.22;5.72;;;;;;;18.77;71.70;94316.81;2615327;47;20420;-77
2022/09/01 05:02:31;;;;;;;6.00;5.50;;;;;;;18.32;73.79;94334.16;2618282;54;20156;-79
2022/09/01 05:05:02;;;;;;;6.75;6.07;;;;;;;18.18;74.54;94327.75;2620602;54;20689;-78
2022/09/01 05:07:32;;;;;;;8.57;7.70;;;;;;;18.34;73.35;94334.16;2616107;54;20408;-78
2022/09/01 05:10:01;;;;;;;6.63;6.03;;;;;;;18.86;71.67;94329.69;2615817;46;20149;-79
2022/09/01 05:12:29;;;;;;;8.95;6.43;;;;;;;18.90;70.72;94326.81;2615912;49;20205;-77
2022/09/01 05:15:05;;;;;;;8.27;7.50;;;;;;;18.79;73.06;94329.00;2617812;54;20174;-80
2022/09/01 05:17:37;;;;;;;8.68;7.30;;;;;;;18.33;72.82;94286.84;2617944;54;20151;-79
2022/09/01 05:20:08;;;;;;;5.75;5.20;;;;;;;18.47;72.86;94292.53;2618224;47;20272;-78
2022/09/01 05:22:39;;;;;;;7.20;6.60;;;;;;;18.14;74.80;94293.34;2618364;47;20692;-79
2022/09/01 05:25:13;;;;;;;11.68;8.07;;;;;;;18.06;75.84;94305.53;2618254;54;20189;-80
2022/09/01 05:27:48;;;;;;;8.18;6.75;;;;;;;18.18;75.54;94331.31;2618755;54;20149;-78
2022/09/01 05:30:18;;;;;;;11.43;9.20;;;;;;;18.11;74.42;94293.38;2618381;54;20547;-79
2022/09/01 05:32:52;;;;;;;9.82;7.88;;;;;;;18.08;75.39;94308.41;2618001;47;20145;-79
2022/09/01 05:35:23;;;;;;;9.73;7.80;;;;;;;18.18;75.06;94305.50;2618333;48;20160;-79
2022/09/01 05:37:53;;;;;;;8.38;7.55;;;;;;;19.17;72.12;94310.88;2618732;39;20475;-79
2022/09/01 05:40:22;;;;;;;9.35;7.13;;;;;;;19.69;69.24;94300.50;2618091;54;20145;-78
2022/09/01 05:42:52;;;;;;;8.35;7.13;;;;;;;20.43;66.56;94324.28;2618279;47;20165;-78
2022/09/01 16:26:59;;;;;;;5.88;5.30;;;;;;;21.84;68.33;94064.44;2605436;54;20234;-80
2022/09/01 17:05:31;;;;;;;6.00;5.35;;;;;;;20.92;78.34;94145.22;2614900;47;20686;-81
2022/09/01 17:08:33;;;;;;;8.27;6.43;;;;;;;20.87;78.36;94150.34;2620111;54;20168;-79
2022/09/01 17:24:23;;;;;;;8.48;7.32;;;;;;;20.87;81.12;94138.13;2616978;46;20156;-80
2022/09/01 17:37:16;;;;;;;9.32;7.18;;;;;;;19.12;81.47;93956.44;2614568;47;20160;-79
2022/09/01 17:52:48;;;;;;;8.98;7.97;;;;;;;20.08;81.77;94122.66;2616987;47;20148;-78
2022/09/01 18:32:42;;;;;;;6.35;5.85;;;;;;;19.95;75.43;94124.25;2615735;54;20191;-79
2022/09/01 18:35:41;;;;;;;5.68;5.25;;;;;;;19.98;75.33;94153.66;2617087;47;20153;-82
2022/09/01 18:38:30;;;;;;;5.65;5.25;;;;;;;19.93;75.34;94161.63;2617244;47;20164;-79
2022/09/01 18:41:10;;;;;;;6.53;5.85;;;;;;;19.93;75.56;94172.41;2622722;46;20188;-80
2022/09/01 18:43:44;;;;;;;6.32;5.38;;;;;;;19.74;75.65;94163.97;2617563;47;20152;-81
2022/09/01 18:46:24;;;;;;;7.13;5.25;;;;;;;19.68;75.48;94169.09;2618542;39;20285;-81
2022/09/01 18:49:09;;;;;;;6.13;5.28;;;;;;;19.30;75.28;94124.88;2618372;54;20652;-83
2022/09/01 18:51:55;;;;;;;5.10;4.70;;;;;;;19.71;73.94;94173.34;2617255;47;20152;-80
2022/09/01 18:54:33;;;;;;;7.70;5.35;;;;;;;19.51;73.45;94149.13;2617851;54;20152;-80
2022/09/01 18:57:05;;;;;;;9.80;6.25;;;;;;;19.60;73.55;94174.91;2618111;47;20160;-80
2022/09/01 18:59:50;;;;;;;4.95;4.55;;;;;;;19.59;73.53;94164.84;2617887;54;20155;-80
2022/09/01 19:02:50;;;;;;;4.88;4.47;;;;;;;19.70;73.61;94177.66;2618284;39;20531;-79
2022/09/01 19:05:28;;;;;;;7.47;4.85;;;;;;;20.49;73.05;94194.06;2617709;54;20153;-81
2022/09/01 19:08:03;;;;;;;7.65;4.90;;;;;;;20.87;71.54;94189.94;2617609;54;20141;-80
2022/09/01 19:10:37;;;;;;;5.55;5.10;;;;;;;20.90;69.63;94177.66;2617231;47;20153;-82
2022/09/01 19:13:14;;;;;;;5.45;4.95;;;;;;;20.78;69.85;94163.41;2617111;47;20216;-81
2022/09/01 19:15:54;;;;;;;4.75;4.45;;;;;;;20.90;69.01;94143.13;2618201;46;20160;-81
2022/09/01 19:18:31;;;;;;;4.63;4.32;;;;;;;22.13;66.82;94185.72;2617968;47;20172;-80
2022/09/01 19:21:07;;;;;;;8.07;5.50;;;;;;;22.19;65.34;94164.69;2618376;54;20184;-80
2022/09/01 19:23:43;;;;;;;9.75;5.00;;;;;;;21.94;65.26;94219.91;2618226;54;20139;-80
2022/09/01 19:26:19;;;;;;;4.38;4.00;;;;;;;22.23;66.47;94217.25;2618852;54;20155;-80
2022/09/01 19:28:52;;;;;;;5.07;4.68;;;;;;;22.73;63.99;94217.66;2618555;54;20144;-79
2022/09/01 19:31:26;;;;;;;5.80;5.25;;;;;;;22.76;63.15;94196.00;2622903;54;20192;-79
2022/09/01 19:33:58;;;;;;;4.72;4.35;;;;;;;22.41;62.71;94189.50;2619519;54;20148;-78
2022/09/01 19:36:34;;;;;;;4.50;4.20;;;;;;;22.31;64.44;94233.66;2616778;54;20164;-79
2022/09/01 19:39:02;;;;;;;4.60;4.20;;;;;;;22.53;63.45;94178.41;2616517;47;20140;-80
2022/09/01 19:41:37;;;;;;;5.13;4.65;;;;;;;23.06;61.88;94226.38;2616332;54;20176;-79
2022/09/01 19:44:14;;;;;;;6.40;4.97;;;;;;;23.29;61.84;94220.78;2616792;47;20230;-79
2022/09/01 19:46:48;;;;;;;5.47;4.53;;;;;;;23.11;62.16;94209.66;2617172;47;20152;-78
2022/09/01 19:49:28;;;;;;;4.32;4.03;;;;;;;23.32;61.72;94219.28;2617914;47;20251;-78
2022/09/01 19:52:07;;;;;;;4.93;4.53;;;;;;;23.15;61.74;94213.16;2617933;47;20136;-79
2022/09/01 19:54:49;;;;;;;6.28;4.90;;;;;;;22.84;62.94;94206.63;2618278;54;20145;-79
2022/09/01 19:57:24;;;;;;;4.35;3.95;;;;;;;23.36;61.61;94214.13;2620768;54;20157;-78
2022/09/01 20:00:01;;;;;;;5.25;4.38;;;;;;;22.39;64.24;94201.78;2623283;47;20164;-80
2022/09/01 20:02:34;;;;;;;5.15;4.45;;;;;;;21.27;69.31;94212.38;2625686;39;20678;-80
2022/09/01 20:05:11;;;;;;;5.70;5.03;;;;;;;20.27;74.52;94217.28;2623088;54;20679;-80
2022/09/01 20:07:48;;;;;;;5.03;4.63;;;;;;;19.79;77.52;94214.22;2618407;47;20171;-79
2022/09/01 20:10:28;;;;;;;6.35;5.75;;;;;;;19.17;80.60;94210.41;2617501;54;20145;-79
2022/09/01 20:13:25;;;;;;;9.70;6.50;;;;;;;19.12;83.11;94220.50;2617882;54;20157;-79
2022/09/01 20:15:59;;;;;;;7.03;6.32;;;;;;;19.63;79.56;94216.53;2617537;47;20164;-81
2022/09/01 20:18:33;;;;;;;5.93;5.40;;;;;;;19.84;78.50;94206.25;2617559;47;20163;-80
2022/09/01 20:21:07;;;;;;;6.07;5.63;;;;;;;19.47;79.64;94209.44;2617415;47;20152;-78
2022/09/01 20:23:45;;;;;;;7.93;4.70;;;;;;;19.01;82.26;94193.31;2617117;54;20158;-79
2022/09/01 20:26:21;;;;;;;7.72;6.22;;;;;;;18.94;83.01;94194.81;2617122;54;20132;-80
2022/09/01 20:28:57;;;;;;;6.75;5.88;;;;;;;18.61;85.21;94190.69;2617690;54;20164;-82
2022/09/01 20:31:30;;;;;;;6.63;6.00;;;;;;;18.54;85.55;94175.66;2617247;54;20172;-80
2022/09/01 20:34:06;;;;;;;10.95;6.35;;;;;;;18.80;84.86;94200.63;2618917;54;20175;-79
2022/09/01 20:36:41;;;;;;;8.88;6.57;;;;;;;19.09;84.25;94201.88;2617632;54;20145;-81
2022/09/01 20:42:13;;;;;;;7.35;6.47;;;;;;;19.92;79.06;94205.47;2618271;46;20165;-81
2022/09/01 20:44:49;;;;;;;6.20;5.68;;;;;;;20.06;77.69;94206.03;2623367;54;20159;-81
2022/09/01 20:47:19;;;;;;;8.10;5.07;;;;;;;20.36;76.23;94205.00;2617389;54;20155;-81
2022/09/01 20:49:48;;;;;;;6.30;5.75;;;;;;;20.58;74.17;94190.31;2617370;54;20236;-80
2022/09/01 20:52:21;;;;;;;5.80;5.30;;;;;;;21.19;71.86;94211.78;2618288;47;20164;-81
2022/09/01 20:55:00;;;;;;;7.15;5.85;;;;;;;21.47;69.58;94182.53;2616654;47;20160;-80
2022/09/01 20:57:42;;;;;;;5.82;5.28;;;;;;;22.23;66.84;94207.88;2615927;47;20152;-81
2022/09/01 21:00:20;;;;;;;5.63;5.10;;;;;;;22.48;65.72;94205.22;2614233;47;20157;-80
2022/09/01 21:02:59;;;;;;;5.75;5.25;;;;;;;22.63;65.14;94209.22;2614414;54;20235;-80
2022/09/01 21:05:39;;;;;;;10.95;4.72;;;;;;;22.76;64.08;94193.09;2614703;47;20218;-81
2022/09/01 21:08:19;;;;;;;5.00;4.50;;;;;;;22.87;63.75;94205.84;2614734;54;20168;-80
2022/09/01 21:11:00;;;;;;;7.10;5.57;;;;;;;22.52;64.46;94208.03;2614970;47;20177;-81
2022/09/01 21:13:50;;;;;;;7.07;5.35;;;;;;;22.48;64.30;94213.88;2615203;47;20771;-79
2022/09/01 21:16:30;;;;;;;9.45;5.53;;;;;;;22.02;65.60;94201.06;2620228;47;20168;-80
2022/09/01 21:19:05;;;;;;;6.25;5.68;;;;;;;21.82;66.74;94210.78;2615992;54;20152;-81
2022/09/01 21:21:43;;;;;;;11.50;6.80;;;;;;;21.68;67.58;94216.78;2614905;47;20156;-81
2022/09/01 21:24:15;;;;;;;6.85;5.07;;;;;;;21.67;67.07;94226.88;2614766;54;20157;-80
2022/09/01 21:27:03;;;;;;;6.55;5.80;;;;;;;21.08;69.25;94225.59;2614595;54;20168;-78
2022/09/01 21:30:06;;;;;;;6.15;5.55;;;;;;;20.64;69.82;94171.56;2614361;47;20155;-77
2022/09/01 21:32:46;;;;;;;6.05;5.55;;;;;;;20.71;69.19;94124.69;2613829;47;20188;-80
2022/09/01 21:35:18;;;;;;;6.95;5.78;;;;;;;21.22;69.34;94222.53;2614225;47;20145;-79
2022/09/01 21:37:49;;;;;;;6.70;6.20;;;;;;;20.58;69.29;94127.03;2618664;54;20164;-80
2022/09/01 21:40:20;;;;;;;6.13;5.07;;;;;;;20.87;69.21;94192.81;2618676;47;20161;-80
2022/09/01 21:42:54;;;;;;;7.10;6.45;;;;;;;21.19;69.41;94224.03;2616025;47;20160;-82
2022/09/01 21:45:24;;;;;;;12.50;5.90;;;;;;;21.09;70.05;94227.03;2615591;54;20974;-80
2022/09/01 21:47:54;;;;;;;5.95;5.45;;;;;;;21.38;68.61;94215.81;2615491;54;20172;-80
2022/09/01 21:50:26;;;;;;;7.10;6.40;;;;;;;21.15;68.95;94235.59;2615822;54;20141;-79
2022/09/01 21:52:55;;;;;;;6.20;5.60;;;;;;;21.28;69.52;94231.09;2615905;54;20152;-79
2022/09/01 21:55:24;;;;;;;7.00;5.28;;;;;;;20.95;68.92;94198.44;2618606;47;20169;-79
2022/09/01 21:57:57;;;;;;;6.28;5.70;;;;;;;20.68;70.69;94229.75;2619268;47;20186;-79
2022/09/01 22:00:31;;;;;;;5.63;5.13;;;;;;;20.31;71.64;94203.59;2618204;39;20664;-79
2022/09/01 22:03:01;;;;;;;5.80;5.22;;;;;;;19.34;75.28;94196.66;2616551;46;20160;-80
2022/09/01 22:05:32;;;;;;;7.55;6.95;;;;;;;19.08;77.41;94229.13;2617294;47;20145;-80
2022/09/01 22:08:02;;;;;;;8.32;6.40;;;;;;;18.76;79.25;94230.06;2618267;47;20167;-81
2022/09/01 22:10:33;;;;;;;8.68;6.75;;;;;;;18.76;80.04;94244.41;2617526;47;20137;-80
2022/09/01 22:13:05;;;;;;;7.57;6.73;;;;;;;18.79;79.22;94233.63;2618031;54;20170;-79
2022/09/01 22:15:33;;;;;;;7.43;6.45;;;;;;;18.68;78.94;94209.31;2621037;47;20152;-79
2022/09/01 22:18:02;;;;;;;7.97;6.30;;;;;;;18.90;79.07;94229.25;2618780;47;20153;-80
2022/09/01 22:20:31;;;;;;;8.35;6.75;;;;;;;19.08;78.47;94229.13;2618156;54;20977;-78
2022/09/01 22:23:03;;;;;;;7.40;6.47;;;;;;;19.09;78.31;94212.63;2617770;54;20204;-80
2022/09/01 22:25:34;;;;;;;6.50;5.93;;;;;;;19.13;78.78;94221.91;2617323;54;20165;-80
2022/09/01 22:28:07;;;;;;;6.85;5.60;;;;;;;19.01;79.05;94193.31;2616267;54;20256;-80
2022/09/01 22:30:36;;;;;;;6.93;6.32;;;;;;;19.12;78.44;94191.09;2616929;54;20164;-80
2022/09/01 22:33:06;;;;;;;5.60;5.20;;;;;;;19.19;78.16;94189.59;2617671;47;20156;-80
2022/09/01 22:35:35;;;;;;;6.50;5.15;;;;;;;19.30;78.28;94198.81;2622962;54;20156;-80
2022/09/01 22:38:04;;;;;;;7.90;5.13;;;;;;;19.22;78.20;94185.25;2617179;47;20681;-82
2022/09/01 22:40:34;;;;;;;6.40;5.85;;;;;;;19.22;77.75;94181.69;2617563;47;20213;-79
2022/09/01 22:43:05;;;;;;;6.15;5.60;;;;;;;19.27;78.51;94203.19;2617023;46;20175;-80
2022/09/01 22:45:34;;;;;;;5.18;4.75;;;;;;;19.22;77.81;94165.16;2616959;54;20145;-79
2022/09/01 22:48:03;;;;;;;6.82;6.00;;;;;;;19.44;77.13;94170.00;2617115;54;20153;-79
2022/09/01 22:50:31;;;;;;;5.75;5.32;;;;;;;19.49;77.17;94183.63;2619181;46;20165;-81
2022/09/01 22:53:00;;;;;;;5.30;4.80;;;;;;;19.44;77.48;94181.47;2616998;47;20161;-80
2022/09/01 22:55:29;;;;;;;8.73;6.47;;;;;;;19.50;77.80;94184.34;2616701;47;20160;-79
2022/09/01 22:57:58;;;;;;;5.13;4.75;;;;;;;19.37;77.44;94160.03;2616769;47;20167;-81
2022/09/01 23:00:29;;;;;;;8.88;5.68;;;;;;;19.46;76.90;94169.97;2616636;47;20213;-81
2022/09/01 23:02:59;;;;;;;5.22;4.72;;;;;;;19.45;77.34;94166.38;2616616;47;20165;-80
2022/09/01 23:05:28;;;;;;;5.88;5.38;;;;;;;19.86;76.80;94180.38;2616783;47;20163;-80
2022/09/01 23:07:58;;;;;;;6.75;5.50;;;;;;;19.70;76.09;94155.41;2619065;39;20270;-80
2022/09/01 23:10:27;;;;;;;5.65;5.15;;;;;;;19.43;77.52;94154.19;2623313;54;20260;-80
2022/09/01 23:12:56;;;;;;;6.47;5.80;;;;;;;19.30;79.25;94164.38;2617344;39;20549;-79
2022/09/01 23:15:25;;;;;;;5.35;5.03;;;;;;;19.06;80.59;94165.28;2617046;47;20157;-80
2022/09/01 23:17:57;;;;;;;6.38;5.82;;;;;;;19.13;81.28;94170.25;2616925;54;20149;-79
2022/09/01 23:20:29;;;;;;;6.35;5.80;;;;;;;19.13;81.30;94181.03;2616703;47;20153;-79
2022/09/01 23:22:58;;;;;;;6.45;5.80;;;;;;;19.07;81.51;94167.44;2616776;47;20180;-79
2022/09/01 23:25:27;;;;;;;10.27;6.03;;;;;;;19.39;80.26;94168.63;2616669;47;20144;-79
2022/09/01 23:27:55;;;;;;;7.03;6.25;;;;;;;19.64;79.21;94178.47;2616718;54;20148;-79
2022/09/01 23:30:24;;;;;;;7.78;5.35;;;;;;;19.32;80.43;94173.69;2616502;47;20137;-80
2022/09/01 23:32:56;;;;;;;5.95;5.45;;;;;;;19.09;82.25;94181.06;2616600;54;20149;-80
2022/09/01 23:35:25;;;;;;;6.45;5.85;;;;;;;18.99;83.29;94179.00;2616449;47;20140;-78
2022/09/01 23:37:54;;;;;;;10.55;5.65;;;;;;;18.61;83.50;94141.94;2616231;47;20203;-80
2022/09/01 23:40:23;;;;;;;6.78;6.15;;;;;;;18.71;84.15;94159.81;2616731;54;20209;-79
2022/09/01 23:42:52;;;;;;;7.60;5.85;;;;;;;18.73;85.33;94179.84;2618105;39;20560;-79
2022/09/01 23:45:21;;;;;;;6.97;6.38;;;;;;;18.51;86.08;94156.31;2617447;54;21002;-79
2022/09/01 23:47:50;;;;;;;7.57;6.87;;;;;;;18.59;86.50;94170.63;2617039;47;20156;-81
2022/09/01 23:50:21;;;;;;;6.53;5.73;;;;;;;18.69;86.24;94188.50;2616654;54;20156;-80
2022/09/01 23:52:50;;;;;;;7.13;5.70;;;;;;;18.56;86.29;94157.72;2618056;47;20148;-80
2022/09/01 23:55:20;;;;;;;7.43;6.73;;;;;;;18.76;86.54;94189.88;2624164;47;20156;-79
2022/09/01 23:57:49;;;;;;;10.00;6.05;;;;;;;18.80;85.53;94166.19;2619294;54;20168;-80
